Tomas Coufal

Olheiro - Slavia Prague
4 Jun 2028
Domingo
Processo

Personalidade

Adaptabilidade (19) Ambição (7) Controvérsia (12) Lealdade (10) Pressão (14) Profissionalismo (3) Espírito Esportivo (11) Temperamento (16)

Perfil

Estilo de Treinamento Democrático
Licença Continental A
Determinação 12
Gestão de Pessoas 12
Motivação 11
Disciplina 10
Satisfação no Trabalho
100%
Fadiga
0%
Função Olheiro
Salário 29.3K p/s
Contrato 14.03.2029

Desempenho

Comportamento Bom
Eficácia do Treinamento
45%
Desenvolvimento do Jogador
25%
Prevenção de Lesões
65%
Implementação Tática
50%

Eventos Recentes

Avaliou um jogador agora
Avaliou um jogador agora
Apresentou um dossiê à direção agora
Avaliou um jogador agora
Avaliou um jogador agora
Avaliou um jogador agora
Avaliou um jogador agora

Monitorando agora

169
Jogador Clube Status Habilidade Confiança Observado Última observação Último voto
Nestory Irankunda Watford Ativo 123 / 136 40% 2 03.06.2028 -
Malik Mothersille Stockport County Ativo 126 / 118 40% 2 03.06.2028 -
Ben Chrisene Norwich City Ativo 135 / 124 40% 1 03.06.2028 -
Akor Adams Venezia Ativo 140 / 148 40% 4 02.06.2028 -
Aune Heggebø West Bromwich Albion Ativo 133 / 136 40% 2 02.06.2028 -
Rumarn Burrell Queens Park Rangers Ativo 128 / 129 40% 5 02.06.2028 -
Sinclair Armstrong Notts County Ativo 129 / 129 40% 2 02.06.2028 -
Oscar Fraulo Derby County Ativo 128 / 133 40% 1 02.06.2028 -
Samuele Mulattieri Sassuolo Ativo 135 / 137 40% 1 02.06.2028 -
Mattia Mannini Juve Stabia Ativo 118 / 127 40% 1 02.06.2028 -
Mats Egbring Heerenveen Ativo 108 / 117 40% 1 02.06.2028 -
Inti Borghetto Patronato Ativo 94 / 101 40% 1 02.06.2028 -
Jordan Larsson Al-Ettifaq Ativo 122 / 127 40% 4 01.06.2028 -
Matija Frigan Parma Ativo 133 / 127 40% 1 01.06.2028 -
Leonardo Mendicino Bari Ativo 118 / 130 40% 1 01.06.2028 -
Martín Jiménez Audax Italiano Ativo 100 / 111 40% 1 01.06.2028 -
Johan Cordoba Universitario Popayan Ativo 97 / 102 40% 1 01.06.2028 -
Julián Quiñones Al-Qadisiyah Ativo 143 / 153 40% 6 31.01.2028 -
Joe Gelhardt Hull City Ativo 146 / 137 40% 2 31.01.2028 -
Morgan Whittaker Middlesbrough Ativo 135 / 135 40% 2 31.01.2028 -
Oston O'runov Persepolis Ativo 121 / 119 40% 1 31.01.2028 -
Aarón Molinas Defensa y Justicia Ativo 128 / 129 40% 1 31.01.2028 -
Caio Vidal CSKA Sofia Ativo 133 / 134 40% 1 31.01.2028 -
Musa Barrow Al-Khaleej Ativo 142 / 135 40% 5 29.01.2028 -
Keinan Davis Udinese Ativo 132 / 139 40% 3 29.01.2028 -
Steven Bergwijn Al-Ittihad Ativo 152 / 156 40% 4 29.01.2028 -
Armstrong Oko-Flex Levski Ativo 121 / 120 40% 1 29.01.2028 -
Kevin Zenón Boca Juniors Ativo 129 / 129 40% 1 29.01.2028 -
Felipe Peña Biafore Lanús Ativo 134 / 132 40% 1 29.01.2028 -
Youssef En-Nesyri Al-Ittihad Ativo 146 / 150 40% 5 28.01.2028 -
Saldanha Al Wasl Ativo 139 / 138 40% 3 28.01.2028 -
Aaron Connolly Leyton Orient Ativo 124 / 126 40% 1 27.01.2028 -
Patson Daka Leicester City Ativo 127 / 125 40% 1 27.01.2028 -
Callum O'Hare Sheffield United Ativo 134 / 133 40% 4 26.01.2028 -
Germán Berterame Newcastle United Ativo 145 / 142 40% 3 26.01.2028 -
Konstantin Tyukavin Lokomotiv Moscow Ativo 137 / 137 40% 3 26.01.2028 -
Diego Luna Real Salt Lake Ativo 127 / 127 40% 1 25.01.2028 -
Relebohile Mofokeng Orlando Pirates Ativo 130 / 132 40% 3 24.01.2028 -
Alexis Cuello San Lorenzo Ativo 125 / 126 40% 2 24.01.2028 -
Lukáš Červ Viktoria Plzen Ativo 139 / 136 40% 1 24.01.2028 -
Amar Memić Viktoria Plzen Ativo 132 / 137 40% 1 21.01.2028 -
Million Manhoef Stoke City Ativo 137 / 136 40% 1 21.01.2028 -
Joaquín Gho Argentinos Juniors Ativo 128 / 128 40% 1 21.01.2028 -
Everton Bala Levski Ativo 132 / 127 40% 2 17.01.2028 -
Mojmír Chytil Viktoria Plzen Ativo 140 / 132 40% 6 16.01.2028 -
Kwadwo Duah Ludogorets Ativo 134 / 130 40% 5 15.01.2028 -
Javi Puado Espanyol Ativo 157 / 152 40% 1 15.01.2028 -
Yousef Salech Cardiff City Ativo 134 / 135 40% 1 14.01.2028 -
Christian Kouamé CSKA Moscow Ativo 132 / 129 40% 2 12.01.2028 -
Beto Everton Ativo 144 / 144 40% 2 10.01.2028 -
Luca Langoni Besiktas Ativo 132 / 137 40% 3 10.01.2028 -
Richard Koné Queens Park Rangers Ativo 124 / 128 40% 1 10.01.2028 -
Filip Kubala Banik Ostrava Ativo 127 / 122 76% 1 07.01.2028 Aprovar
Juan Carlos Arana Racing Santander Ativo 138 / 131 40% 1 07.01.2028 -
Ignacio Russo Tigre Ativo 126 / 128 40% 1 07.01.2028 -
Agustín Anello Spartak Moscow Ativo 134 / 130 40% 2 05.01.2028 -
August Priske Birmingham Ativo 140 / 141 40% 2 04.01.2028 -
Alan Lescano Argentinos Juniors Ativo 131 / 134 40% 1 04.01.2028 -
Håkon Evjen Bodo/Glimt Ativo 134 / 136 40% 1 04.01.2028 -
Fashion Sakala Al-Fayha Ativo 140 / 124 40% 5 02.01.2028 -
Ramón Mierez Al Nasr Ativo 120 / 125 40% 2 31.08.2027 -
George Hirst Stoke City Ativo 141 / 137 40% 2 31.08.2027 -
Facundo Kruspzky Al Wahda Ativo 120 / 122 40% 1 31.08.2027 -
Hamzat Ojediran Colorado Rapids Ativo 125 / 124 40% 1 31.08.2027 -
Mamadou Coulibaly Al Jazira Ativo 124 / 136 40% 2 29.08.2027 -
Brahima Diarra Al Wahda Ativo 124 / 124 40% 2 29.08.2027 -
Theo Corbeanu Toronto FC Ativo 131 / 128 40% 1 29.08.2027 -
Rayan Bournemouth Ativo 140 / 142 40% 2 27.08.2027 -
Cheikh Sabaly Vancouver Whitecaps Ativo 133 / 128 40% 1 27.08.2027 -
Jesus Ferreira Seattle Sounders Ativo 136 / 132 40% 2 26.08.2027 -
Breel Embolo Los Angeles Football Club Ativo 140 / 135 40% 2 24.08.2027 -
Elias Baum Eintracht Frankfurt Ativo 128 / 139 40% 1 23.08.2027 -
Jack McGlynn Houston Dynamo Ativo 134 / 131 40% 1 23.08.2027 -
Otto Stange Hamburger SV Ativo 114 / 124 40% 1 21.08.2027 -
Ramiro Peralta Juventud Ativo 118 / 117 40% 1 21.08.2027 -
Jonathan Rowe Bologna Ativo 131 / 136 40% 1 19.08.2027 -
Filip Stojilković Pisa Ativo 130 / 133 40% 2 18.08.2027 -
Dany Mota Monza Ativo 139 / 132 40% 4 17.08.2027 -
David Romero Parma Ativo 121 / 129 40% 1 17.08.2027 -
Stiven Shpendi Empoli Ativo 123 / 121 40% 1 17.08.2027 -
Tommaso Barbieri Cremonese Ativo 132 / 137 40% 1 17.08.2027 -
Stefano Di Mario Virtus Entella Ativo 127 / 125 40% 1 17.08.2027 -
Ola Brynhildsen Bodo/Glimt Ativo 137 / 122 40% 5 15.08.2027 -
Sam Surridge Nashville SC Ativo 136 / 130 40% 2 15.08.2027 -
Ahmed Qasem Nashville SC Ativo 117 / 125 40% 1 15.08.2027 -
Konan N'Dri Lecce Ativo 128 / 129 40% 2 13.08.2027 -
Martín Ojeda Orlando City Ativo 142 / 136 40% 1 12.08.2027 -
Samuele Angori Pisa Ativo 130 / 138 40% 1 12.08.2027 -
Bjorn Meijer Sampdoria Ativo 131 / 132 40% 1 11.08.2027 -
Alex Amorim Genoa Ativo 141 / 137 40% 1 11.08.2027 -
Kian Fitz-Jim Torino Ativo 136 / 138 40% 1 10.08.2027 -
Alessandro Ventre Vis Pesaro Ativo 99 / 102 40% 1 10.08.2027 -
Teo Rodríguez Pagano San Lorenzo Perdido 114 / 121 40% 1 10.08.2027 -
Elijah Adebayo Luton Town Ativo 123 / 132 40% 3 07.08.2027 -
Victor Torp Coventry City Ativo 126 / 136 40% 1 06.08.2027 -
Yoane Wissa Newcastle United Ativo 146 / 153 40% 4 05.08.2027 -
Willem Geubbels Lecce Ativo 139 / 132 40% 1 03.08.2027 -
Myles Peart-Harris Bristol Rovers Ativo 125 / 126 40% 2 01.08.2027 -
Ryan Oné Sheffield United Ativo 126 / 125 40% 1 01.08.2027 -
Ra'ees Bangura-Williams Millwall Ativo 128 / 127 40% 1 01.08.2027 -
Aidomo Emakhu Oxford United Ativo 118 / 128 40% 1 31.07.2027 -
Jacques Ekomié Wrexham Ativo 135 / 141 40% 1 31.07.2027 -
Ethan Williams Peterborough United Ativo 111 / 123 40% 1 31.07.2027 -
Joe Knight Stevenage Ativo 97 / 114 40% 1 29.07.2027 -
T-Jay Parfitt Colchester United Ativo 85 / 99 40% 1 29.07.2027 -
Lewis Bate Stockport County Ativo 124 / 129 40% 3 28.07.2027 -
Othmane Maamma Watford Ativo 132 / 125 40% 1 28.07.2027 -
Tammer Kumar West Bromwich Albion Ativo 116 / 116 40% 1 28.07.2027 -
Santiago Pierotti Lecce Ativo 134 / 129 40% 1 28.07.2027 -
Boulaye Dia Lazio Ativo 152 / 149 40% 1 28.07.2027 -
Tijjani Noslin Lazio Ativo 131 / 136 40% 1 24.07.2027 -
Cian Ashford Cardiff City Ativo 130 / 128 40% 1 24.07.2027 -
Alex Robertson Cardiff City Ativo 122 / 123 40% 2 23.07.2027 -
Abu Kamara Portsmouth Ativo 125 / 117 40% 1 23.07.2027 -
Afriyie Sulemana Hasaacas Ativo 90 / 106 40% 1 23.07.2027 -
Caleb Yirenkyi Coventry City Ativo 134 / 149 40% 1 23.07.2027 -
Pejman Azmoun Gostaresh Foulad Ativo 130 / 126 40% 7 20.07.2027 -
Lukas Nmecha Leeds United Ativo 129 / 131 40% 1 20.07.2027 -
Prosper Obah Shakhtar Ativo 129 / 134 40% 6 17.07.2027 -
Vitinha Genoa Ativo 127 / 135 40% 1 15.07.2027 -
Kauã Elias Shakhtar Ativo 138 / 142 40% 8 14.07.2027 -
Mirlind Daku Spartak Moscow Ativo 136 / 128 40% 4 14.07.2027 -
Cesare Casadei Torino Ativo 139 / 135 40% 1 14.07.2027 -
Alfie Devine Preston Ativo 119 / 118 40% 1 14.07.2027 -
Simone Kosijer Triestina Ativo 96 / 98 40% 1 13.07.2027 -
Jack Shorrock Port Vale Ativo 92 / 104 40% 1 13.07.2027 -
Gady Beyuku Modena Ativo 112 / 125 40% 1 13.07.2027 -
Toni Fruk HNK Rijeka Ativo 134 / 140 40% 5 12.07.2027 -
Jamie McDonnell Oxford United Ativo 118 / 122 40% 1 12.07.2027 -
Alex Lowry Wycombe Wanderers Ativo 128 / 118 40% 1 08.07.2027 -
Kévin Denkey FC Cincinnati Ativo 127 / 124 40% 2 02.07.2027 -
Neal Maupay Olympique de Marseille Ativo 135 / 143 40% 1 01.07.2027 -
Moussa Dembélé Spartak Moscow Ativo 132 / 127 40% 1 30.06.2027 -
Federico Bonazzoli Bologna Ativo 131 / 135 40% 4 26.06.2027 -
Dion Beljo Dinamo Zagreb Ativo 130 / 134 40% 8 24.06.2027 -
Randy Nteka Rayo Vallecano Ativo 138 / 123 40% 3 24.06.2027 -
Romano Floriani Mussolini Avellino Ativo 124 / 123 40% 2 24.06.2027 -
Chem Campbell Stevenage Ativo 118 / 115 40% 2 24.06.2027 -
Marlon Gomes Shakhtar Ativo 136 / 137 40% 1 23.06.2027 -
Ryan Trevitt AFC Wimbledon Ativo 112 / 124 40% 1 23.06.2027 -
Mfundo Vilakazi Kaizer Chiefs Ativo 118 / 122 40% 1 23.06.2027 -
Adam Armstrong Wolverhampton Ativo 120 / 131 40% 2 15.06.2027 -
Bruno Barticciotto Olympique Lyonnais Ativo 134 / 124 40% 1 10.06.2027 -
Tommaso Milanese Ascoli Ativo 117 / 114 40% 1 09.06.2027 -
Erick Marcus Ludogorets Ativo 120 / 127 40% 2 30.01.2027 -
Victor Parada Spartak Moscow Ativo 119 / 125 40% 1 30.01.2027 -
Jayden Nelson Bolton Wanderers Ativo 111 / 117 40% 1 24.01.2027 -
Nicolás Arévalo Metalist Ativo 118 / 116 40% 1 23.01.2027 -
Lindon Emërllahu Polissia Ativo 115 / 122 40% 1 23.01.2027 -
Hélio Varela Maccabi Tel Aviv Ativo 115 / 127 40% 2 22.01.2027 -
Kellen Fisher Norwich City Ativo 122 / 124 40% 1 17.01.2027 -
Tyler Goodrham Oxford United Ativo 125 / 129 40% 2 15.01.2027 -
Talles Costa Honved Ativo 114 / 117 40% 1 15.01.2027 -
Mohau Nkota Al-Hilal Ativo 118 / 129 40% 1 11.01.2027 -
Sebastian Nebyla Jablonec Ativo 113 / 117 40% 1 10.01.2027 -
Andre Brooks Sheffield United Ativo 130 / 121 40% 2 09.01.2027 -
Tyreece Campbell Charlton Athletic Ativo 115 / 125 40% 1 09.01.2027 -
Bongani Kekana SuperSport United Ativo 136 / 137 40% 1 04.01.2027 -
Zeidane Inoussa Swansea City Ativo 113 / 125 40% 1 03.01.2027 -
Kristoffer Lund Birmingham Ativo 134 / 128 40% 1 03.01.2027 -
Griffin Yow New England Revolution Ativo 118 / 127 40% 1 29.08.2026 -
Martin Cedidla Jablonec Ativo 122 / 134 40% 1 26.08.2026 -
Telasco Segovia Inter Miami CF Ativo 132 / 129 40% 2 24.08.2026 -
Emil Ceïde Rosenborg Ativo 130 / 120 40% 1 24.08.2026 -
André Luiz Sporting Kansas City Ativo 118 / 131 40% 1 19.08.2026 -
Patrik Wålemark Lech Ativo 116 / 121 40% 1 18.08.2026 -
Qëndrim Zyba Slovan Liberec Ativo 110 / 117 69% 1 10.08.2026 Aprovar
José Gayà Valencia Ativo 125 / 134 40% 1 02.08.2026 -
Álex Berenguer Athletic Bilbao Ativo 141 / 156 40% 1 02.08.2026 -